sensor_id;sensor_type;location;lat;lon;timestamp;P1;durP1;ratioP1;P2;durP2;ratioP2
49770;SDS011;35660;41.950;12.536;2022-07-23T00:00:09;8.40;;;7.57;;
49770;SDS011;35660;41.950;12.536;2022-07-23T00:02:35;8.63;;;7.88;;
49770;SDS011;35660;41.950;12.536;2022-07-23T00:05:01;8.85;;;7.93;;
49770;SDS011;35660;41.950;12.536;2022-07-23T00:07:26;8.50;;;7.80;;
49770;SDS011;35660;41.950;12.536;2022-07-23T00:09:52;11.80;;;10.70;;
49770;SDS011;35660;41.950;12.536;2022-07-23T00:12:18;11.88;;;10.68;;
49770;SDS011;35660;41.950;12.536;2022-07-23T00:14:43;11.98;;;10.85;;
49770;SDS011;35660;41.950;12.536;2022-07-23T00:17:09;11.20;;;10.02;;
49770;SDS011;35660;41.950;12.536;2022-07-23T00:19:35;12.30;;;11.15;;
49770;SDS011;35660;41.950;12.536;2022-07-23T00:22:00;12.55;;;10.57;;
49770;SDS011;35660;41.950;12.536;2022-07-23T00:24:26;10.35;;;9.55;;
49770;SDS011;35660;41.950;12.536;2022-07-23T00:26:52;12.40;;;11.30;;
49770;SDS011;35660;41.950;12.536;2022-07-23T00:29:18;16.67;;;11.35;;
49770;SDS011;35660;41.950;12.536;2022-07-23T00:31:43;11.98;;;10.98;;
49770;SDS011;35660;41.950;12.536;2022-07-23T00:34:09;15.63;;;11.65;;
49770;SDS011;35660;41.950;12.536;2022-07-23T00:36:35;11.50;;;10.40;;
49770;SDS011;35660;41.950;12.536;2022-07-23T00:39:00;11.88;;;10.48;;
49770;SDS011;35660;41.950;12.536;2022-07-23T00:41:26;10.23;;;9.10;;
49770;SDS011;35660;41.950;12.536;2022-07-23T00:43:52;12.63;;;10.13;;
49770;SDS011;35660;41.950;12.536;2022-07-23T00:46:23;11.30;;;10.20;;
49770;SDS011;35660;41.950;12.536;2022-07-23T00:48:50;11.48;;;10.30;;
49770;SDS011;35660;41.950;12.536;2022-07-23T00:51:16;10.65;;;9.77;;
49770;SDS011;35660;41.950;12.536;2022-07-23T00:53:42;10.75;;;9.88;;
49770;SDS011;35660;41.950;12.536;2022-07-23T00:56:08;14.50;;;12.07;;
49770;SDS011;35660;41.950;12.536;2022-07-23T00:58:35;10.15;;;9.20;;
49770;SDS011;35660;41.950;12.536;2022-07-23T01:01:02;13.30;;;10.13;;
49770;SDS011;35660;41.950;12.536;2022-07-23T01:03:28;10.90;;;10.00;;
49770;SDS011;35660;41.950;12.536;2022-07-23T01:05:53;13.55;;;9.93;;
49770;SDS011;35660;41.950;12.536;2022-07-23T01:08:19;14.45;;;9.93;;
49770;SDS011;35660;41.950;12.536;2022-07-23T01:10:46;10.90;;;9.90;;
49770;SDS011;35660;41.950;12.536;2022-07-23T01:13:12;10.48;;;9.20;;
49770;SDS011;35660;41.950;12.536;2022-07-23T01:15:38;12.00;;;9.52;;
49770;SDS011;35660;41.950;12.536;2022-07-23T01:18:05;12.13;;;11.02;;
49770;SDS011;35660;41.950;12.536;2022-07-23T01:20:32;11.98;;;10.65;;
49770;SDS011;35660;41.950;12.536;2022-07-23T01:22:58;12.63;;;11.20;;
49770;SDS011;35660;41.950;12.536;2022-07-23T01:25:24;13.05;;;10.10;;
49770;SDS011;35660;41.950;12.536;2022-07-23T01:27:56;10.80;;;9.75;;
49770;SDS011;35660;41.950;12.536;2022-07-23T01:30:23;10.73;;;9.70;;
49770;SDS011;35660;41.950;12.536;2022-07-23T01:32:49;10.77;;;9.82;;
49770;SDS011;35660;41.950;12.536;2022-07-23T01:35:14;11.10;;;10.20;;
49770;SDS011;35660;41.950;12.536;2022-07-23T01:37:41;12.90;;;10.55;;
49770;SDS011;35660;41.950;12.536;2022-07-23T01:40:07;10.65;;;9.55;;
49770;SDS011;35660;41.950;12.536;2022-07-23T01:42:33;10.80;;;9.75;;
49770;SDS011;35660;41.950;12.536;2022-07-23T01:44:58;12.48;;;9.55;;
49770;SDS011;35660;41.950;12.536;2022-07-23T01:47:24;9.88;;;9.05;;
49770;SDS011;35660;41.950;12.536;2022-07-23T01:49:53;14.70;;;10.27;;
49770;SDS011;35660;41.950;12.536;2022-07-23T01:52:42;11.02;;;10.05;;
49770;SDS011;35660;41.950;12.536;2022-07-23T01:55:08;10.60;;;9.40;;
49770;SDS011;35660;41.950;12.536;2022-07-23T01:57:34;16.10;;;9.77;;
49770;SDS011;35660;41.950;12.536;2022-07-23T02:00:02;11.00;;;10.00;;
49770;SDS011;35660;41.950;12.536;2022-07-23T02:02:38;12.32;;;10.13;;
49770;SDS011;35660;41.950;12.536;2022-07-23T02:05:04;11.55;;;9.70;;
49770;SDS011;35660;41.950;12.536;2022-07-23T02:07:30;12.70;;;9.63;;
49770;SDS011;35660;41.950;12.536;2022-07-23T02:09:58;11.48;;;10.07;;
49770;SDS011;35660;41.950;12.536;2022-07-23T02:12:24;9.38;;;8.57;;
49770;SDS011;35660;41.950;12.536;2022-07-23T02:14:49;10.38;;;8.98;;
49770;SDS011;35660;41.950;12.536;2022-07-23T02:17:15;10.95;;;9.80;;
49770;SDS011;35660;41.950;12.536;2022-07-23T02:19:41;9.27;;;8.32;;
49770;SDS011;35660;41.950;12.536;2022-07-23T02:22:07;9.68;;;8.73;;
49770;SDS011;35660;41.950;12.536;2022-07-23T02:24:32;10.27;;;9.25;;
49770;SDS011;35660;41.950;12.536;2022-07-23T02:26:58;11.13;;;8.73;;
49770;SDS011;35660;41.950;12.536;2022-07-23T02:29:25;9.93;;;8.98;;
49770;SDS011;35660;41.950;12.536;2022-07-23T02:31:53;10.32;;;8.85;;
49770;SDS011;35660;41.950;12.536;2022-07-23T02:34:19;10.27;;;9.30;;
49770;SDS011;35660;41.950;12.536;2022-07-23T02:36:44;10.30;;;9.38;;
49770;SDS011;35660;41.950;12.536;2022-07-23T02:39:11;15.77;;;9.32;;
49770;SDS011;35660;41.950;12.536;2022-07-23T02:41:37;11.02;;;9.98;;
49770;SDS011;35660;41.950;12.536;2022-07-23T02:44:03;11.35;;;9.57;;
49770;SDS011;35660;41.950;12.536;2022-07-23T02:46:29;12.35;;;9.35;;
49770;SDS011;35660;41.950;12.536;2022-07-23T02:48:56;9.27;;;8.65;;
49770;SDS011;35660;41.950;12.536;2022-07-23T02:51:22;12.13;;;10.88;;
49770;SDS011;35660;41.950;12.536;2022-07-23T02:53:53;9.95;;;8.55;;
49770;SDS011;35660;41.950;12.536;2022-07-23T02:56:20;8.73;;;7.93;;
49770;SDS011;35660;41.950;12.536;2022-07-23T02:58:46;9.25;;;8.38;;
49770;SDS011;35660;41.950;12.536;2022-07-23T03:01:12;10.57;;;8.27;;
49770;SDS011;35660;41.950;12.536;2022-07-23T03:03:38;12.40;;;8.63;;
49770;SDS011;35660;41.950;12.536;2022-07-23T03:06:04;8.90;;;8.18;;
49770;SDS011;35660;41.950;12.536;2022-07-23T03:08:30;10.35;;;8.70;;
49770;SDS011;35660;41.950;12.536;2022-07-23T03:10:56;9.30;;;7.30;;
49770;SDS011;35660;41.950;12.536;2022-07-23T03:13:21;8.70;;;7.97;;
49770;SDS011;35660;41.950;12.536;2022-07-23T03:15:47;8.18;;;7.47;;
49770;SDS011;35660;41.950;12.536;2022-07-23T03:18:13;11.95;;;9.10;;
49770;SDS011;35660;41.950;12.536;2022-07-23T03:20:38;8.00;;;7.40;;
49770;SDS011;35660;41.950;12.536;2022-07-23T03:23:04;12.88;;;7.78;;
49770;SDS011;35660;41.950;12.536;2022-07-23T03:25:31;7.22;;;6.63;;
49770;SDS011;35660;41.950;12.536;2022-07-23T03:27:56;8.38;;;7.57;;
49770;SDS011;35660;41.950;12.536;2022-07-23T03:30:25;8.20;;;7.45;;
49770;SDS011;35660;41.950;12.536;2022-07-23T03:32:50;7.07;;;6.38;;
49770;SDS011;35660;41.950;12.536;2022-07-23T03:35:16;9.07;;;8.27;;
49770;SDS011;35660;41.950;12.536;2022-07-23T03:37:58;8.05;;;6.95;;
49770;SDS011;35660;41.950;12.536;2022-07-23T03:40:25;8.45;;;7.65;;
49770;SDS011;35660;41.950;12.536;2022-07-23T03:42:51;8.32;;;7.47;;
49770;SDS011;35660;41.950;12.536;2022-07-23T03:45:17;6.88;;;6.38;;
49770;SDS011;35660;41.950;12.536;2022-07-23T03:47:42;7.68;;;7.07;;
49770;SDS011;35660;41.950;12.536;2022-07-23T03:50:09;7.35;;;6.50;;
49770;SDS011;35660;41.950;12.536;2022-07-23T03:52:35;9.02;;;7.03;;
49770;SDS011;35660;41.950;12.536;2022-07-23T03:55:02;7.65;;;6.95;;
49770;SDS011;35660;41.950;12.536;2022-07-23T03:57:27;8.25;;;7.57;;
49770;SDS011;35660;41.950;12.536;2022-07-23T03:59:53;7.40;;;6.70;;
49770;SDS011;35660;41.950;12.536;2022-07-23T04:02:19;6.78;;;5.82;;
49770;SDS011;35660;41.950;12.536;2022-07-23T04:04:45;7.43;;;6.82;;
49770;SDS011;35660;41.950;12.536;2022-07-23T04:07:12;8.40;;;7.63;;
49770;SDS011;35660;41.950;12.536;2022-07-23T04:09:38;8.02;;;6.90;;
49770;SDS011;35660;41.950;12.536;2022-07-23T04:12:06;8.30;;;7.47;;
49770;SDS011;35660;41.950;12.536;2022-07-23T04:14:32;10.50;;;8.02;;
49770;SDS011;35660;41.950;12.536;2022-07-23T04:16:58;8.80;;;8.00;;
49770;SDS011;35660;41.950;12.536;2022-07-23T04:19:25;7.90;;;7.13;;
49770;SDS011;35660;41.950;12.536;2022-07-23T04:22:00;8.02;;;7.25;;
49770;SDS011;35660;41.950;12.536;2022-07-23T04:24:28;8.48;;;7.60;;
49770;SDS011;35660;41.950;12.536;2022-07-23T04:26:53;9.65;;;6.90;;
49770;SDS011;35660;41.950;12.536;2022-07-23T04:29:19;8.70;;;7.53;;
49770;SDS011;35660;41.950;12.536;2022-07-23T04:31:46;11.85;;;10.75;;
49770;SDS011;35660;41.950;12.536;2022-07-23T04:34:12;13.02;;;10.63;;
49770;SDS011;35660;41.950;12.536;2022-07-23T04:36:37;10.40;;;9.50;;
49770;SDS011;35660;41.950;12.536;2022-07-23T04:39:03;11.20;;;10.20;;
49770;SDS011;35660;41.950;12.536;2022-07-23T04:41:30;11.60;;;9.85;;
49770;SDS011;35660;41.950;12.536;2022-07-23T04:43:55;11.00;;;10.00;;
49770;SDS011;35660;41.950;12.536;2022-07-23T04:46:21;8.55;;;7.55;;
49770;SDS011;35660;41.950;12.536;2022-07-23T04:48:49;9.85;;;8.98;;
49770;SDS011;35660;41.950;12.536;2022-07-23T04:51:16;11.68;;;8.32;;
49770;SDS011;35660;41.950;12.536;2022-07-23T04:53:42;10.77;;;8.90;;
49770;SDS011;35660;41.950;12.536;2022-07-23T04:56:09;9.52;;;8.75;;
49770;SDS011;35660;41.950;12.536;2022-07-23T04:58:35;10.18;;;9.35;;
49770;SDS011;35660;41.950;12.536;2022-07-23T05:01:01;10.68;;;9.57;;
49770;SDS011;35660;41.950;12.536;2022-07-23T05:03:29;10.60;;;9.55;;
49770;SDS011;35660;41.950;12.536;2022-07-23T05:05:55;15.63;;;10.73;;
49770;SDS011;35660;41.950;12.536;2022-07-23T05:08:20;10.80;;;9.80;;
49770;SDS011;35660;41.950;12.536;2022-07-23T05:10:50;8.82;;;8.10;;
49770;SDS011;35660;41.950;12.536;2022-07-23T05:13:18;12.10;;;10.25;;
49770;SDS011;35660;41.950;12.536;2022-07-23T05:15:44;10.90;;;9.40;;
49770;SDS011;35660;41.950;12.536;2022-07-23T05:18:09;13.38;;;12.13;;
49770;SDS011;35660;41.950;12.536;2022-07-23T05:20:35;13.57;;;12.30;;
49770;SDS011;35660;41.950;12.536;2022-07-23T05:23:01;15.05;;;12.57;;
49770;SDS011;35660;41.950;12.536;2022-07-23T05:25:28;21.13;;;15.68;;
49770;SDS011;35660;41.950;12.536;2022-07-23T05:27:53;15.15;;;13.73;;
49770;SDS011;35660;41.950;12.536;2022-07-23T05:30:19;14.88;;;13.35;;
49770;SDS011;35660;41.950;12.536;2022-07-23T05:32:47;21.58;;;16.73;;
49770;SDS011;35660;41.950;12.536;2022-07-23T05:35:16;16.83;;;15.10;;
49770;SDS011;35660;41.950;12.536;2022-07-23T05:37:49;16.90;;;15.27;;
49770;SDS011;35660;41.950;12.536;2022-07-23T05:40:14;17.20;;;15.43;;
49770;SDS011;35660;41.950;12.536;2022-07-23T05:42:40;15.95;;;14.35;;
49770;SDS011;35660;41.950;12.536;2022-07-23T05:45:08;21.55;;;14.25;;
49770;SDS011;35660;41.950;12.536;2022-07-23T05:47:43;15.57;;;13.82;;
49770;SDS011;35660;41.950;12.536;2022-07-23T05:50:10;17.83;;;14.50;;
49770;SDS011;35660;41.950;12.536;2022-07-23T05:52:44;14.82;;;13.32;;
49770;SDS011;35660;41.950;12.536;2022-07-23T05:55:29;15.15;;;13.13;;
49770;SDS011;35660;41.950;12.536;2022-07-23T05:57:57;14.73;;;12.15;;
49770;SDS011;35660;41.950;12.536;2022-07-23T06:00:23;15.25;;;11.25;;
49770;SDS011;35660;41.950;12.536;2022-07-23T06:02:49;12.68;;;9.85;;
49770;SDS011;35660;41.950;12.536;2022-07-23T06:05:16;13.80;;;11.90;;
49770;SDS011;35660;41.950;12.536;2022-07-23T06:07:43;13.85;;;10.25;;
49770;SDS011;35660;41.950;12.536;2022-07-23T06:10:09;10.20;;;9.15;;
49770;SDS011;35660;41.950;12.536;2022-07-23T06:12:35;12.23;;;9.52;;
49770;SDS011;35660;41.950;12.536;2022-07-23T06:15:01;10.73;;;9.35;;
49770;SDS011;35660;41.950;12.536;2022-07-23T06:17:27;8.60;;;7.78;;
49770;SDS011;35660;41.950;12.536;2022-07-23T06:19:53;12.18;;;9.45;;
49770;SDS011;35660;41.950;12.536;2022-07-23T06:22:19;8.68;;;7.88;;
49770;SDS011;35660;41.950;12.536;2022-07-23T06:24:45;8.65;;;7.88;;
49770;SDS011;35660;41.950;12.536;2022-07-23T06:27:11;10.98;;;9.52;;
49770;SDS011;35660;41.950;12.536;2022-07-23T06:29:37;9.85;;;8.90;;
49770;SDS011;35660;41.950;12.536;2022-07-23T06:32:02;11.98;;;9.32;;
49770;SDS011;35660;41.950;12.536;2022-07-23T06:34:28;10.85;;;8.90;;
49770;SDS011;35660;41.950;12.536;2022-07-23T06:36:55;11.45;;;10.35;;
49770;SDS011;35660;41.950;12.536;2022-07-23T06:39:21;10.70;;;9.80;;
49770;SDS011;35660;41.950;12.536;2022-07-23T06:41:48;10.15;;;9.35;;
49770;SDS011;35660;41.950;12.536;2022-07-23T06:44:16;15.02;;;9.93;;
49770;SDS011;35660;41.950;12.536;2022-07-23T06:46:42;9.43;;;8.52;;
49770;SDS011;35660;41.950;12.536;2022-07-23T06:49:08;10.90;;;9.90;;
49770;SDS011;35660;41.950;12.536;2022-07-23T06:51:34;15.65;;;10.40;;
49770;SDS011;35660;41.950;12.536;2022-07-23T06:54:00;10.25;;;9.27;;
49770;SDS011;35660;41.950;12.536;2022-07-23T06:56:26;10.50;;;9.60;;
49770;SDS011;35660;41.950;12.536;2022-07-23T06:58:53;11.95;;;10.85;;
49770;SDS011;35660;41.950;12.536;2022-07-23T07:01:19;12.05;;;10.15;;
49770;SDS011;35660;41.950;12.536;2022-07-23T07:03:44;9.68;;;8.70;;
49770;SDS011;35660;41.950;12.536;2022-07-23T07:06:10;12.25;;;10.52;;
49770;SDS011;35660;41.950;12.536;2022-07-23T07:08:36;10.90;;;9.80;;
49770;SDS011;35660;41.950;12.536;2022-07-23T07:11:02;11.88;;;10.68;;
49770;SDS011;35660;41.950;12.536;2022-07-23T07:13:28;11.45;;;10.45;;
49770;SDS011;35660;41.950;12.536;2022-07-23T07:15:55;11.73;;;10.52;;
49770;SDS011;35660;41.950;12.536;2022-07-23T07:18:20;11.52;;;10.45;;
49770;SDS011;35660;41.950;12.536;2022-07-23T07:20:46;10.63;;;9.65;;
49770;SDS011;35660;41.950;12.536;2022-07-23T07:23:12;11.10;;;10.18;;
49770;SDS011;35660;41.950;12.536;2022-07-23T07:25:38;11.02;;;10.13;;
49770;SDS011;35660;41.950;12.536;2022-07-23T07:28:04;10.50;;;9.55;;
49770;SDS011;35660;41.950;12.536;2022-07-23T07:30:29;10.25;;;9.35;;
49770;SDS011;35660;41.950;12.536;2022-07-23T07:32:55;13.50;;;8.70;;
49770;SDS011;35660;41.950;12.536;2022-07-23T07:35:21;9.23;;;8.43;;
49770;SDS011;35660;41.950;12.536;2022-07-23T07:37:46;10.20;;;9.18;;
49770;SDS011;35660;41.950;12.536;2022-07-23T07:40:12;9.63;;;8.75;;
49770;SDS011;35660;41.950;12.536;2022-07-23T07:42:44;11.07;;;10.07;;
49770;SDS011;35660;41.950;12.536;2022-07-23T07:45:10;10.13;;;9.20;;
49770;SDS011;35660;41.950;12.536;2022-07-23T07:47:36;9.85;;;8.43;;
49770;SDS011;35660;41.950;12.536;2022-07-23T07:50:01;9.82;;;7.88;;
49770;SDS011;35660;41.950;12.536;2022-07-23T07:52:27;10.50;;;9.55;;
49770;SDS011;35660;41.950;12.536;2022-07-23T07:54:53;9.98;;;7.32;;
49770;SDS011;35660;41.950;12.536;2022-07-23T07:57:18;8.18;;;7.47;;
49770;SDS011;35660;41.950;12.536;2022-07-23T07:59:44;8.13;;;7.35;;
49770;SDS011;35660;41.950;12.536;2022-07-23T08:02:10;10.15;;;7.35;;
49770;SDS011;35660;41.950;12.536;2022-07-23T08:04:36;7.38;;;6.68;;
49770;SDS011;35660;41.950;12.536;2022-07-23T08:07:01;7.80;;;7.20;;
49770;SDS011;35660;41.950;12.536;2022-07-23T08:09:27;8.90;;;8.00;;
49770;SDS011;35660;41.950;12.536;2022-07-23T08:11:53;8.88;;;8.18;;
49770;SDS011;35660;41.950;12.536;2022-07-23T08:14:18;7.80;;;7.28;;
49770;SDS011;35660;41.950;12.536;2022-07-23T08:16:44;9.77;;;8.80;;
49770;SDS011;35660;41.950;12.536;2022-07-23T08:19:10;8.85;;;8.18;;
49770;SDS011;35660;41.950;12.536;2022-07-23T08:21:35;9.32;;;8.52;;
49770;SDS011;35660;41.950;12.536;2022-07-23T08:24:01;8.15;;;7.07;;
49770;SDS011;35660;41.950;12.536;2022-07-23T08:26:27;8.60;;;7.90;;
49770;SDS011;35660;41.950;12.536;2022-07-23T08:28:53;9.95;;;8.25;;
49770;SDS011;35660;41.950;12.536;2022-07-23T08:31:18;7.30;;;6.63;;
49770;SDS011;35660;41.950;12.536;2022-07-23T08:33:44;7.68;;;6.90;;
49770;SDS011;35660;41.950;12.536;2022-07-23T08:36:10;10.80;;;7.55;;
49770;SDS011;35660;41.950;12.536;2022-07-23T08:38:35;8.27;;;7.47;;
49770;SDS011;35660;41.950;12.536;2022-07-23T08:41:02;7.90;;;6.78;;
49770;SDS011;35660;41.950;12.536;2022-07-23T08:43:28;8.85;;;7.95;;
49770;SDS011;35660;41.950;12.536;2022-07-23T08:45:55;8.43;;;7.50;;
49770;SDS011;35660;41.950;12.536;2022-07-23T08:48:26;8.32;;;7.45;;
49770;SDS011;35660;41.950;12.536;2022-07-23T08:50:53;7.18;;;6.63;;
49770;SDS011;35660;41.950;12.536;2022-07-23T08:53:20;8.35;;;7.07;;
49770;SDS011;35660;41.950;12.536;2022-07-23T08:55:50;6.70;;;6.05;;
49770;SDS011;35660;41.950;12.536;2022-07-23T08:58:16;7.60;;;6.75;;
49770;SDS011;35660;41.950;12.536;2022-07-23T09:00:42;6.82;;;6.25;;
49770;SDS011;35660;41.950;12.536;2022-07-23T09:03:12;7.25;;;6.60;;
49770;SDS011;35660;41.950;12.536;2022-07-23T09:05:40;11.77;;;6.68;;
49770;SDS011;35660;41.950;12.536;2022-07-23T09:08:07;8.70;;;7.78;;
49770;SDS011;35660;41.950;12.536;2022-07-23T09:10:53;8.35;;;6.60;;
49770;SDS011;35660;41.950;12.536;2022-07-23T09:13:32;6.75;;;6.10;;
49770;SDS011;35660;41.950;12.536;2022-07-23T09:16:02;8.35;;;6.00;;
49770;SDS011;35660;41.950;12.536;2022-07-23T09:18:29;8.75;;;5.30;;
49770;SDS011;35660;41.950;12.536;2022-07-23T09:21:08;6.70;;;6.20;;
49770;SDS011;35660;41.950;12.536;2022-07-23T09:23:54;7.22;;;6.60;;
49770;SDS011;35660;41.950;12.536;2022-07-23T09:28:59;6.43;;;5.88;;
49770;SDS011;35660;41.950;12.536;2022-07-23T09:31:27;7.45;;;6.30;;
49770;SDS011;35660;41.950;12.536;2022-07-23T09:34:39;8.48;;;7.57;;
49770;SDS011;35660;41.950;12.536;2022-07-23T09:36:46;7.20;;;6.50;;
49770;SDS011;35660;41.950;12.536;2022-07-23T09:39:12;10.02;;;6.80;;
49770;SDS011;35660;41.950;12.536;2022-07-23T09:41:42;9.35;;;7.25;;
49770;SDS011;35660;41.950;12.536;2022-07-23T09:44:09;8.00;;;7.30;;
49770;SDS011;35660;41.950;12.536;2022-07-23T09:46:35;10.55;;;8.32;;
49770;SDS011;35660;41.950;12.536;2022-07-23T09:49:11;7.65;;;7.05;;
49770;SDS011;35660;41.950;12.536;2022-07-23T09:51:43;7.10;;;6.43;;
49770;SDS011;35660;41.950;12.536;2022-07-23T09:54:20;8.35;;;7.57;;
49770;SDS011;35660;41.950;12.536;2022-07-23T09:56:46;11.93;;;8.40;;
49770;SDS011;35660;41.950;12.536;2022-07-23T09:59:12;8.40;;;7.60;;
49770;SDS011;35660;41.950;12.536;2022-07-23T10:01:40;10.60;;;8.43;;
49770;SDS011;35660;41.950;12.536;2022-07-23T10:04:06;8.40;;;7.50;;
49770;SDS011;35660;41.950;12.536;2022-07-23T10:06:54;7.80;;;7.10;;
49770;SDS011;35660;41.950;12.536;2022-07-23T10:09:45;9.88;;;8.88;;
49770;SDS011;35660;41.950;12.536;2022-07-23T10:12:38;8.27;;;7.63;;
49770;SDS011;35660;41.950;12.536;2022-07-23T10:15:20;11.48;;;8.50;;
49770;SDS011;35660;41.950;12.536;2022-07-23T10:17:45;7.97;;;7.28;;
49770;SDS011;35660;41.950;12.536;2022-07-23T10:20:11;10.85;;;8.32;;
49770;SDS011;35660;41.950;12.536;2022-07-23T10:22:38;12.13;;;8.25;;
49770;SDS011;35660;41.950;12.536;2022-07-23T10:25:10;8.15;;;7.40;;
49770;SDS011;35660;41.950;12.536;2022-07-23T10:30:07;7.82;;;6.97;;
49770;SDS011;35660;41.950;12.536;2022-07-23T10:35:22;10.40;;;7.70;;
49770;SDS011;35660;41.950;12.536;2022-07-23T10:37:53;14.23;;;6.47;;
49770;SDS011;35660;41.950;12.536;2022-07-23T10:40:21;10.60;;;7.47;;
49770;SDS011;35660;41.950;12.536;2022-07-23T10:42:49;11.32;;;7.88;;
49770;SDS011;35660;41.950;12.536;2022-07-23T10:45:35;10.63;;;7.40;;
49770;SDS011;35660;41.950;12.536;2022-07-23T10:48:18;8.90;;;7.68;;
49770;SDS011;35660;41.950;12.536;2022-07-23T10:53:34;8.07;;;7.47;;
49770;SDS011;35660;41.950;12.536;2022-07-23T10:56:15;6.70;;;6.10;;
49770;SDS011;35660;41.950;12.536;2022-07-23T10:58:48;6.80;;;6.13;;
49770;SDS011;35660;41.950;12.536;2022-07-23T11:03:59;7.85;;;7.25;;
49770;SDS011;35660;41.950;12.536;2022-07-23T11:06:44;8.65;;;6.18;;
49770;SDS011;35660;41.950;12.536;2022-07-23T11:09:23;7.15;;;6.45;;
49770;SDS011;35660;41.950;12.536;2022-07-23T11:11:49;7.07;;;6.03;;
49770;SDS011;35660;41.950;12.536;2022-07-23T11:14:14;6.63;;;5.55;;
49770;SDS011;35660;41.950;12.536;2022-07-23T11:16:46;6.43;;;5.40;;
49770;SDS011;35660;41.950;12.536;2022-07-23T11:19:13;4.78;;;4.35;;
49770;SDS011;35660;41.950;12.536;2022-07-23T11:24:08;5.75;;;4.80;;
49770;SDS011;35660;41.950;12.536;2022-07-23T11:32:30;4.40;;;4.05;;
49770;SDS011;35660;41.950;12.536;2022-07-23T11:34:40;7.40;;;5.32;;
49770;SDS011;35660;41.950;12.536;2022-07-23T11:37:08;4.55;;;4.15;;
49770;SDS011;35660;41.950;12.536;2022-07-23T11:39:34;5.65;;;4.25;;
49770;SDS011;35660;41.950;12.536;2022-07-23T11:42:00;4.30;;;3.95;;
49770;SDS011;35660;41.950;12.536;2022-07-23T11:44:30;6.07;;;5.57;;
49770;SDS011;35660;41.950;12.536;2022-07-23T11:46:57;5.97;;;5.03;;
49770;SDS011;35660;41.950;12.536;2022-07-23T11:49:23;5.18;;;4.78;;
49770;SDS011;35660;41.950;12.536;2022-07-23T11:54:30;4.07;;;3.72;;
49770;SDS011;35660;41.950;12.536;2022-07-23T11:57:00;4.50;;;4.20;;
49770;SDS011;35660;41.950;12.536;2022-07-23T11:59:26;4.78;;;4.35;;
49770;SDS011;35660;41.950;12.536;2022-07-23T12:01:59;5.20;;;4.78;;
49770;SDS011;35660;41.950;12.536;2022-07-23T12:04:36;4.55;;;3.83;;
49770;SDS011;35660;41.950;12.536;2022-07-23T12:07:02;4.57;;;4.18;;
49770;SDS011;35660;41.950;12.536;2022-07-23T12:09:28;5.30;;;4.80;;
49770;SDS011;35660;41.950;12.536;2022-07-23T12:12:00;5.30;;;4.78;;
49770;SDS011;35660;41.950;12.536;2022-07-23T12:14:26;6.18;;;4.85;;
49770;SDS011;35660;41.950;12.536;2022-07-23T12:17:07;4.93;;;4.43;;
49770;SDS011;35660;41.950;12.536;2022-07-23T12:19:33;6.22;;;4.78;;
49770;SDS011;35660;41.950;12.536;2022-07-23T12:21:59;6.57;;;4.97;;
49770;SDS011;35660;41.950;12.536;2022-07-23T12:24:25;6.18;;;5.60;;
49770;SDS011;35660;41.950;12.536;2022-07-23T12:29:35;4.38;;;3.97;;
49770;SDS011;35660;41.950;12.536;2022-07-23T12:32:01;7.38;;;5.10;;
49770;SDS011;35660;41.950;12.536;2022-07-23T12:34:27;3.83;;;3.53;;
49770;SDS011;35660;41.950;12.536;2022-07-23T12:36:53;4.72;;;4.32;;
49770;SDS011;35660;41.950;12.536;2022-07-23T12:39:31;4.53;;;4.22;;
49770;SDS011;35660;41.950;12.536;2022-07-23T12:41:57;6.38;;;4.78;;
49770;SDS011;35660;41.950;12.536;2022-07-23T12:44:23;4.82;;;4.50;;
49770;SDS011;35660;41.950;12.536;2022-07-23T12:46:49;4.35;;;4.05;;
49770;SDS011;35660;41.950;12.536;2022-07-23T12:49:25;4.95;;;4.45;;
49770;SDS011;35660;41.950;12.536;2022-07-23T12:51:50;5.38;;;4.88;;
49770;SDS011;35660;41.950;12.536;2022-07-23T12:54:16;5.07;;;4.60;;
49770;SDS011;35660;41.950;12.536;2022-07-23T12:56:44;7.13;;;4.38;;
49770;SDS011;35660;41.950;12.536;2022-07-23T12:59:11;4.90;;;4.47;;
49770;SDS011;35660;41.950;12.536;2022-07-23T13:01:37;6.00;;;5.45;;
49770;SDS011;35660;41.950;12.536;2022-07-23T13:04:07;6.35;;;5.70;;
49770;SDS011;35660;41.950;12.536;2022-07-23T13:06:43;5.93;;;4.40;;
49770;SDS011;35660;41.950;12.536;2022-07-23T13:09:10;4.78;;;4.35;;
49770;SDS011;35660;41.950;12.536;2022-07-23T13:11:38;4.13;;;3.83;;
49770;SDS011;35660;41.950;12.536;2022-07-23T13:14:04;4.28;;;3.97;;
49770;SDS011;35660;41.950;12.536;2022-07-23T13:16:30;4.93;;;3.60;;
49770;SDS011;35660;41.950;12.536;2022-07-23T13:18:56;6.15;;;4.30;;
49770;SDS011;35660;41.950;12.536;2022-07-23T13:21:22;4.55;;;4.18;;
49770;SDS011;35660;41.950;12.536;2022-07-23T13:23:48;4.55;;;4.15;;
49770;SDS011;35660;41.950;12.536;2022-07-23T13:26:14;4.60;;;4.20;;
49770;SDS011;35660;41.950;12.536;2022-07-23T13:28:40;7.28;;;4.70;;
49770;SDS011;35660;41.950;12.536;2022-07-23T13:31:06;3.50;;;3.20;;
49770;SDS011;35660;41.950;12.536;2022-07-23T13:33:33;7.53;;;4.00;;
49770;SDS011;35660;41.950;12.536;2022-07-23T13:35:58;5.25;;;4.10;;
49770;SDS011;35660;41.950;12.536;2022-07-23T13:38:24;3.97;;;3.65;;
49770;SDS011;35660;41.950;12.536;2022-07-23T13:40:50;4.35;;;4.00;;
49770;SDS011;35660;41.950;12.536;2022-07-23T13:43:17;4.35;;;3.95;;
49770;SDS011;35660;41.950;12.536;2022-07-23T13:45:43;7.63;;;3.95;;
49770;SDS011;35660;41.950;12.536;2022-07-23T13:48:09;4.70;;;4.30;;
49770;SDS011;35660;41.950;12.536;2022-07-23T13:50:35;4.90;;;3.88;;
49770;SDS011;35660;41.950;12.536;2022-07-23T13:53:02;4.40;;;3.20;;
49770;SDS011;35660;41.950;12.536;2022-07-23T13:55:28;4.95;;;4.45;;
49770;SDS011;35660;41.950;12.536;2022-07-23T13:57:54;6.70;;;4.55;;
49770;SDS011;35660;41.950;12.536;2022-07-23T14:00:20;4.15;;;3.78;;
49770;SDS011;35660;41.950;12.536;2022-07-23T14:02:46;4.72;;;4.32;;
49770;SDS011;35660;41.950;12.536;2022-07-23T14:05:11;4.72;;;4.32;;
49770;SDS011;35660;41.950;12.536;2022-07-23T14:07:37;3.72;;;3.42;;
49770;SDS011;35660;41.950;12.536;2022-07-23T14:10:03;4.25;;;3.80;;
49770;SDS011;35660;41.950;12.536;2022-07-23T14:12:30;4.53;;;4.13;;
49770;SDS011;35660;41.950;12.536;2022-07-23T14:14:56;4.25;;;3.78;;
49770;SDS011;35660;41.950;12.536;2022-07-23T14:17:22;4.60;;;4.20;;
49770;SDS011;35660;41.950;12.536;2022-07-23T14:19:48;4.43;;;4.03;;
49770;SDS011;35660;41.950;12.536;2022-07-23T14:22:13;4.40;;;3.45;;
49770;SDS011;35660;41.950;12.536;2022-07-23T14:24:39;4.68;;;4.28;;
49770;SDS011;35660;41.950;12.536;2022-07-23T14:27:05;3.80;;;3.55;;
49770;SDS011;35660;41.950;12.536;2022-07-23T14:29:31;5.97;;;4.60;;
49770;SDS011;35660;41.950;12.536;2022-07-23T14:31:57;4.10;;;3.78;;
49770;SDS011;35660;41.950;12.536;2022-07-23T14:34:23;4.15;;;3.75;;
49770;SDS011;35660;41.950;12.536;2022-07-23T14:36:49;4.32;;;3.92;;
49770;SDS011;35660;41.950;12.536;2022-07-23T14:39:14;3.83;;;3.53;;
49770;SDS011;35660;41.950;12.536;2022-07-23T14:41:40;4.57;;;4.03;;
49770;SDS011;35660;41.950;12.536;2022-07-23T14:44:06;4.00;;;3.65;;
49770;SDS011;35660;41.950;12.536;2022-07-23T14:46:31;4.15;;;3.83;;
49770;SDS011;35660;41.950;12.536;2022-07-23T14:48:57;4.18;;;3.78;;
49770;SDS011;35660;41.950;12.536;2022-07-23T14:51:23;4.45;;;3.92;;
49770;SDS011;35660;41.950;12.536;2022-07-23T14:53:49;3.13;;;2.83;;